createdAt,value
2022-09-15T00:00:31.351Z,17.30
2022-09-15T00:01:31.781Z,17.31
2022-09-15T00:02:31.431Z,17.36
2022-09-15T00:03:31.310Z,17.37
2022-09-15T00:04:31.303Z,17.38
2022-09-15T00:05:31.649Z,17.43
2022-09-15T00:06:31.262Z,17.44
2022-09-15T00:07:31.257Z,17.44
2022-09-15T00:08:31.238Z,17.46
2022-09-15T00:09:31.228Z,17.46
2022-09-15T00:10:31.617Z,17.46
2022-09-15T00:11:31.199Z,17.46
2022-09-15T00:12:31.187Z,17.49
2022-09-15T00:13:31.167Z,17.51
2022-09-15T00:14:31.165Z,17.49
2022-09-15T00:15:31.521Z,17.51
2022-09-15T00:16:31.176Z,17.51
2022-09-15T00:17:31.117Z,17.52
2022-09-15T00:18:31.114Z,17.52
2022-09-15T00:19:31.096Z,17.52
2022-09-15T00:20:31.086Z,17.52
2022-09-15T00:21:31.411Z,17.51
2022-09-15T00:22:31.055Z,17.54
2022-09-15T00:23:31.036Z,17.55
2022-09-15T00:24:31.028Z,17.54
2022-09-15T00:25:31.439Z,17.55
2022-09-15T00:26:31.015Z,17.56
2022-09-15T00:27:31.005Z,17.56
2022-09-15T00:28:30.985Z,17.58
2022-09-15T00:29:30.966Z,17.59
2022-09-15T00:30:31.020Z,17.59
2022-09-15T00:31:31.314Z,17.63
2022-09-15T00:32:30.924Z,17.64
2022-09-15T00:33:30.913Z,17.66
2022-09-15T00:34:30.905Z,17.66
2022-09-15T00:35:31.302Z,17.68
2022-09-15T00:36:30.875Z,17.66
2022-09-15T00:37:30.877Z,17.66
2022-09-15T00:38:30.854Z,17.66
2022-09-15T00:39:30.843Z,17.64
2022-09-15T00:40:30.877Z,17.64
2022-09-15T00:41:31.226Z,17.64
2022-09-15T00:42:30.801Z,17.64
2022-09-15T00:43:30.783Z,17.64
2022-09-15T00:44:30.791Z,17.68
2022-09-15T00:45:31.117Z,17.68
2022-09-15T00:46:30.752Z,17.68
2022-09-15T00:47:30.732Z,17.68
2022-09-15T00:48:30.735Z,17.71
2022-09-15T00:49:30.703Z,17.74
2022-09-15T00:50:30.692Z,17.74
2022-09-15T00:51:31.088Z,17.72
2022-09-15T00:52:30.671Z,17.71
2022-09-15T00:53:30.662Z,17.71
2022-09-15T00:54:30.644Z,17.71
2022-09-15T00:55:30.984Z,17.71
2022-09-15T00:56:30.624Z,17.70
2022-09-15T00:57:30.611Z,17.68
2022-09-15T00:58:30.601Z,17.71
2022-09-15T00:59:30.581Z,17.70
2022-09-15T01:00:30.571Z,17.71
2022-09-15T01:01:31.037Z,17.70
2022-09-15T01:02:30.643Z,17.70
2022-09-15T01:03:30.547Z,17.70
2022-09-15T01:04:30.519Z,17.70
2022-09-15T01:05:30.905Z,17.70
2022-09-15T01:06:30.493Z,17.71
2022-09-15T01:07:30.478Z,17.70
2022-09-15T01:08:30.459Z,17.70
2022-09-15T01:09:30.458Z,17.70
2022-09-15T01:10:30.441Z,17.71
2022-09-15T01:11:30.748Z,17.71
2022-09-15T01:12:30.418Z,17.72
2022-09-15T01:13:30.399Z,17.71
2022-09-15T01:14:30.391Z,17.74
2022-09-15T01:15:30.778Z,17.74
2022-09-15T01:16:30.396Z,17.72
2022-09-15T01:17:30.348Z,17.74
2022-09-15T01:18:30.347Z,17.72
2022-09-15T01:19:30.320Z,17.72
2022-09-15T01:20:30.319Z,17.70
2022-09-15T01:21:30.650Z,17.70
2022-09-15T01:22:30.284Z,17.68
2022-09-15T01:23:30.278Z,17.66
2022-09-15T01:24:30.269Z,17.63
2022-09-15T01:25:30.647Z,17.63
2022-09-15T01:26:30.238Z,17.62
2022-09-15T01:27:42.155Z,17.62
2022-09-15T01:28:31.209Z,17.59
2022-09-15T01:29:30.189Z,17.58
2022-09-15T01:30:30.183Z,17.56
2022-09-15T01:31:30.600Z,17.55
2022-09-15T01:32:30.155Z,17.55
2022-09-15T01:33:30.146Z,17.55
2022-09-15T01:34:30.137Z,17.52
2022-09-15T01:35:30.446Z,17.51
2022-09-15T01:36:30.105Z,17.49
2022-09-15T01:37:30.097Z,17.49
2022-09-15T01:38:30.075Z,17.49
2022-09-15T01:39:30.068Z,17.48
2022-09-15T01:40:30.129Z,17.48
2022-09-15T01:41:30.455Z,17.48
2022-09-15T01:42:30.025Z,17.48
2022-09-15T01:43:30.015Z,17.49
2022-09-15T01:44:30.008Z,17.52
2022-09-15T01:45:30.411Z,17.51
2022-09-15T01:46:29.984Z,17.54
2022-09-15T01:47:29.970Z,17.54
2022-09-15T01:48:29.971Z,17.54
2022-09-15T01:49:29.946Z,17.55
2022-09-15T01:50:29.934Z,17.56
2022-09-15T01:51:30.256Z,17.58
2022-09-15T01:52:29.915Z,17.56
2022-09-15T01:53:29.896Z,17.55
2022-09-15T01:54:29.883Z,17.54
2022-09-15T01:55:30.275Z,17.54
2022-09-15T01:56:29.855Z,17.54
2022-09-15T01:57:29.846Z,17.52
2022-09-15T01:58:29.823Z,17.51
2022-09-15T01:59:29.806Z,17.51
2022-09-15T02:00:29.800Z,17.51
2022-09-15T02:01:30.251Z,17.49
2022-09-15T02:02:29.859Z,17.48
2022-09-15T02:03:29.799Z,17.46
2022-09-15T02:04:29.754Z,17.43
2022-09-15T02:05:30.045Z,17.43
2022-09-15T02:06:29.732Z,17.43
2022-09-15T02:07:29.712Z,17.43
2022-09-15T02:08:29.693Z,17.41
2022-09-15T02:09:29.679Z,17.44
2022-09-15T02:10:29.671Z,17.44
2022-09-15T02:11:30.069Z,17.44
2022-09-15T02:12:29.650Z,17.46
2022-09-15T02:13:29.632Z,17.44
2022-09-15T02:14:29.611Z,17.46
2022-09-15T02:15:29.923Z,17.44
2022-09-15T02:16:29.639Z,17.43
2022-09-15T02:17:29.571Z,17.44
2022-09-15T02:18:29.572Z,17.44
2022-09-15T02:19:29.554Z,17.41
2022-09-15T02:20:29.540Z,17.38
2022-09-15T02:21:29.939Z,17.36
2022-09-15T02:22:29.521Z,17.34
2022-09-15T02:23:29.502Z,17.30
2022-09-15T02:24:29.491Z,17.23
2022-09-15T02:25:29.869Z,17.21
2022-09-15T02:26:29.465Z,17.18
2022-09-15T02:27:29.448Z,17.14
2022-09-15T02:28:29.437Z,17.12
2022-09-15T02:29:29.430Z,17.08
2022-09-15T02:30:29.408Z,17.08
2022-09-15T02:31:29.816Z,17.06
2022-09-15T02:32:29.390Z,17.07
2022-09-15T02:33:29.371Z,17.07
2022-09-15T02:34:29.360Z,17.11
2022-09-15T02:35:29.658Z,17.15
2022-09-15T02:36:29.350Z,17.16
2022-09-15T02:37:29.328Z,17.21
2022-09-15T02:38:29.315Z,17.22
2022-09-15T02:39:29.289Z,17.23
2022-09-15T02:40:29.357Z,17.23
2022-09-15T02:41:29.687Z,17.25
2022-09-15T02:42:29.257Z,17.28
2022-09-15T02:43:29.240Z,17.28
2022-09-15T02:44:29.226Z,17.30
2022-09-15T02:45:29.605Z,17.33
2022-09-15T02:46:29.205Z,17.33
2022-09-15T02:47:29.188Z,17.33
2022-09-15T02:48:29.208Z,17.33
2022-09-15T02:49:29.174Z,17.34
2022-09-15T02:50:29.155Z,17.34
2022-09-15T02:51:29.547Z,17.40
2022-09-15T02:52:29.125Z,17.38
2022-09-15T02:53:29.114Z,17.37
2022-09-15T02:54:29.105Z,17.40
2022-09-15T02:55:29.462Z,17.40
2022-09-15T02:56:29.076Z,17.40
2022-09-15T02:57:29.063Z,17.38
2022-09-15T02:58:29.057Z,17.37
2022-09-15T02:59:29.034Z,17.36
2022-09-15T03:00:29.027Z,17.37
2022-09-15T03:01:29.393Z,17.34
2022-09-15T03:02:29.048Z,17.34
2022-09-15T03:03:28.983Z,17.33
2022-09-15T03:04:28.974Z,17.31
2022-09-15T03:05:29.363Z,17.28
2022-09-15T03:06:28.952Z,17.30
2022-09-15T03:07:28.935Z,17.28
2022-09-15T03:08:28.920Z,17.28
2022-09-15T03:09:28.912Z,17.26
2022-09-15T03:10:28.894Z,17.28
2022-09-15T03:11:29.262Z,17.26
2022-09-15T03:12:28.870Z,17.26
2022-09-15T03:13:28.852Z,17.26
2022-09-15T03:14:28.845Z,17.25
2022-09-15T03:15:29.153Z,17.25
2022-09-15T03:16:28.881Z,17.23
2022-09-15T03:17:28.802Z,17.23
2022-09-15T03:18:28.794Z,17.22
2022-09-15T03:19:28.773Z,17.22
2022-09-15T03:20:28.762Z,17.19
2022-09-15T03:21:29.155Z,17.18
2022-09-15T03:22:28.751Z,17.15
2022-09-15T03:23:28.734Z,17.14
2022-09-15T03:24:28.751Z,17.14
2022-09-15T03:25:29.081Z,17.14
2022-09-15T03:26:28.696Z,17.12
2022-09-15T03:27:28.671Z,17.12
2022-09-15T03:28:28.663Z,17.12
2022-09-15T03:29:28.640Z,17.14
2022-09-15T03:30:28.637Z,17.14
2022-09-15T03:31:29.041Z,17.14
2022-09-15T03:32:28.610Z,17.12
2022-09-15T03:33:28.590Z,17.12
2022-09-15T03:34:28.582Z,17.12
2022-09-15T03:35:28.979Z,17.11
2022-09-15T03:36:28.550Z,17.12
2022-09-15T03:37:28.560Z,17.12
2022-09-15T03:38:28.551Z,17.12
2022-09-15T03:39:28.516Z,17.15
2022-09-15T03:40:28.556Z,17.14
2022-09-15T03:41:28.900Z,17.14
2022-09-15T03:42:28.477Z,17.11
2022-09-15T03:43:28.469Z,17.12
2022-09-15T03:44:28.451Z,17.12
2022-09-15T03:45:28.807Z,17.15
2022-09-15T03:46:28.427Z,17.18
2022-09-15T03:47:28.417Z,17.18
2022-09-15T03:48:28.408Z,17.19
2022-09-15T03:49:28.405Z,17.23
2022-09-15T03:50:28.378Z,17.23
2022-09-15T03:51:28.771Z,17.25
2022-09-15T03:52:28.349Z,17.25
2022-09-15T03:53:28.328Z,17.31
2022-09-15T03:54:28.327Z,17.30
2022-09-15T03:55:28.716Z,17.36
2022-09-15T03:56:28.299Z,17.36
2022-09-15T03:57:28.288Z,17.37
2022-09-15T03:58:30.782Z,17.38
2022-09-15T03:59:28.256Z,17.40
2022-09-15T04:00:33.775Z,17.43
2022-09-15T04:01:28.535Z,17.44
2022-09-15T04:02:28.254Z,17.48
2022-09-15T04:03:28.216Z,17.48
2022-09-15T04:04:28.195Z,17.49
2022-09-15T04:05:28.597Z,17.49
2022-09-15T04:06:28.167Z,17.49
2022-09-15T04:07:28.155Z,17.52
2022-09-15T04:08:28.164Z,17.52
2022-09-15T04:09:28.133Z,17.52
2022-09-15T04:10:28.114Z,17.52
2022-09-15T04:11:28.495Z,17.52
2022-09-15T04:12:28.094Z,17.51
2022-09-15T04:13:28.808Z,17.52
2022-09-15T04:14:28.073Z,17.54
2022-09-15T04:15:28.461Z,17.54
2022-09-15T04:16:28.068Z,17.58
2022-09-15T04:17:28.028Z,17.56
2022-09-15T04:18:28.015Z,17.56
2022-09-15T04:19:28.004Z,17.56
2022-09-15T04:20:27.986Z,17.55
2022-09-15T04:21:28.327Z,17.55
2022-09-15T04:22:27.964Z,17.54
2022-09-15T04:23:27.956Z,17.54
2022-09-15T04:24:27.932Z,17.55
2022-09-15T04:25:28.287Z,17.52
2022-09-15T04:26:27.911Z,17.54
2022-09-15T04:27:27.892Z,17.52
2022-09-15T04:28:27.890Z,17.51
2022-09-15T04:29:27.873Z,17.49
2022-09-15T04:30:27.871Z,17.48
2022-09-15T04:31:28.254Z,17.46
2022-09-15T04:32:27.831Z,17.49
2022-09-15T04:33:27.827Z,17.46
2022-09-15T04:34:27.812Z,17.46
2022-09-15T04:35:27.831Z,17.48
2022-09-15T04:36:27.780Z,17.48
2022-09-15T04:37:27.770Z,17.49
2022-09-15T04:38:27.760Z,17.49
2022-09-15T04:39:27.742Z,17.52
2022-09-15T04:40:27.776Z,17.52
2022-09-15T04:41:27.754Z,17.54
2022-09-15T04:42:27.708Z,17.54
2022-09-15T04:43:27.683Z,17.52
2022-09-15T04:44:27.672Z,17.55
2022-09-15T04:45:27.701Z,17.55
2022-09-15T04:46:27.694Z,17.54
2022-09-15T04:47:27.642Z,17.55
2022-09-15T04:48:27.639Z,17.55
2022-09-15T04:49:27.619Z,17.55
2022-09-15T04:50:27.600Z,17.55
2022-09-15T04:51:27.879Z,17.55
2022-09-15T04:52:27.579Z,17.56
2022-09-15T04:53:27.570Z,17.59
2022-09-15T04:54:27.550Z,17.63
2022-09-15T04:55:27.963Z,17.64
2022-09-15T04:56:27.521Z,17.63
2022-09-15T04:57:27.507Z,17.63
2022-09-15T04:58:27.499Z,17.63
2022-09-15T04:59:27.494Z,17.63
2022-09-15T05:00:27.469Z,17.59
2022-09-15T05:01:27.970Z,17.62
2022-09-15T05:02:27.487Z,17.63
2022-09-15T05:03:27.439Z,17.63
2022-09-15T05:04:27.419Z,17.64
2022-09-15T05:05:27.817Z,17.62
2022-09-15T05:06:27.397Z,17.64
2022-09-15T05:07:27.376Z,17.62
2022-09-15T05:08:27.368Z,17.64
2022-09-15T05:09:27.388Z,17.64
2022-09-15T05:10:27.776Z,17.63
2022-09-15T05:11:27.327Z,17.66
2022-09-15T05:12:27.316Z,17.64
2022-09-15T05:13:27.296Z,17.64
2022-09-15T05:14:27.336Z,17.66
2022-09-15T05:15:27.335Z,17.63
2022-09-15T05:16:27.393Z,17.64
2022-09-15T05:17:27.247Z,17.68
2022-09-15T05:18:27.278Z,17.68
2022-09-15T05:19:27.235Z,17.70
2022-09-15T05:20:27.216Z,17.71
2022-09-15T05:21:27.226Z,17.74
2022-09-15T05:22:27.189Z,17.77
2022-09-15T05:23:27.177Z,17.77
2022-09-15T05:24:27.167Z,17.78
2022-09-15T05:25:27.564Z,17.79
2022-09-15T05:26:27.145Z,17.79
2022-09-15T05:27:27.115Z,17.81
2022-09-15T05:28:27.105Z,17.82
2022-09-15T05:29:27.094Z,17.82
2022-09-15T05:30:37.849Z,17.82
2022-09-15T05:31:28.347Z,17.82
2022-09-15T05:32:27.072Z,17.82
2022-09-15T05:33:27.053Z,17.82
2022-09-15T05:34:27.159Z,17.86
2022-09-15T05:35:27.443Z,17.86
2022-09-15T05:36:27.014Z,17.86
2022-09-15T05:37:26.992Z,17.89
2022-09-15T05:38:26.995Z,17.90
2022-09-15T05:39:26.982Z,17.92
2022-09-15T05:40:26.971Z,17.93
2022-09-15T05:41:27.280Z,17.93
2022-09-15T05:42:26.922Z,17.92
2022-09-15T05:43:26.933Z,17.95
2022-09-15T05:44:26.902Z,17.96
2022-09-15T05:45:27.302Z,17.99
2022-09-15T05:46:26.927Z,17.97
2022-09-15T05:47:26.862Z,17.97
2022-09-15T05:48:26.870Z,17.99
2022-09-15T05:49:26.843Z,17.99
2022-09-15T05:50:26.823Z,17.96
2022-09-15T05:51:27.300Z,17.93
2022-09-15T05:52:26.803Z,17.92
2022-09-15T05:53:26.787Z,17.90
2022-09-15T05:54:26.781Z,17.89
2022-09-15T05:55:27.083Z,17.87
2022-09-15T05:56:26.780Z,17.82
2022-09-15T05:57:26.732Z,17.79
2022-09-15T05:58:26.713Z,17.79
2022-09-15T05:59:26.720Z,17.79
2022-09-15T06:00:26.691Z,17.78
2022-09-15T06:01:27.247Z,17.78
2022-09-15T06:02:26.733Z,17.79
2022-09-15T06:03:30.751Z,17.79
2022-09-15T06:04:26.640Z,17.77
2022-09-15T06:05:27.052Z,17.77
2022-09-15T06:06:26.620Z,17.78
2022-09-15T06:07:26.749Z,17.78
2022-09-15T06:08:26.600Z,17.78
2022-09-15T06:09:26.579Z,17.77
2022-09-15T06:10:26.585Z,17.75
2022-09-15T06:11:26.971Z,17.78
2022-09-15T06:12:26.565Z,17.78
2022-09-15T06:13:26.534Z,17.81
2022-09-15T06:14:26.508Z,17.82
2022-09-15T06:15:26.920Z,17.82
2022-09-15T06:16:26.612Z,17.82
2022-09-15T06:17:26.469Z,17.84
2022-09-15T06:18:26.467Z,17.86
2022-09-15T06:19:26.451Z,17.87
2022-09-15T06:20:26.476Z,17.90
2022-09-15T06:21:26.827Z,17.93
2022-09-15T06:22:26.406Z,17.99
2022-09-15T06:23:26.398Z,18.00
2022-09-15T06:24:26.377Z,18.05
2022-09-15T06:25:26.738Z,18.07
2022-09-15T06:26:26.399Z,18.08
2022-09-15T06:27:26.395Z,18.07
2022-09-15T06:28:26.329Z,18.07
2022-09-15T06:29:26.327Z,18.07
2022-09-15T06:30:26.719Z,18.08
2022-09-15T06:31:26.375Z,18.10
2022-09-15T06:32:26.276Z,18.05
2022-09-15T06:33:26.266Z,18.02
2022-09-15T06:34:26.246Z,17.99
2022-09-15T06:35:26.617Z,17.97
2022-09-15T06:36:26.225Z,17.96
2022-09-15T06:37:26.218Z,17.96
2022-09-15T06:38:26.208Z,17.93
2022-09-15T06:39:26.189Z,17.90
2022-09-15T06:40:26.259Z,17.89
2022-09-15T06:41:26.491Z,17.87
2022-09-15T06:42:26.146Z,17.84
2022-09-15T06:43:26.135Z,17.81
2022-09-15T06:44:26.146Z,17.81
2022-09-15T06:45:26.476Z,17.78
2022-09-15T06:46:26.205Z,17.78
2022-09-15T06:47:26.094Z,17.75
2022-09-15T06:48:26.080Z,17.74
2022-09-15T06:49:26.073Z,17.74
2022-09-15T06:50:26.455Z,17.72
2022-09-15T06:51:26.033Z,17.75
2022-09-15T06:52:26.015Z,17.75
2022-09-15T06:53:26.003Z,17.75
2022-09-15T06:54:25.995Z,17.74
2022-09-15T06:55:26.284Z,17.77
2022-09-15T06:56:25.964Z,17.84
2022-09-15T06:57:25.960Z,17.87
2022-09-15T06:58:25.946Z,17.90
2022-09-15T06:59:25.944Z,17.92
2022-09-15T07:00:25.910Z,17.95
2022-09-15T07:01:26.222Z,17.93
2022-09-15T07:02:26.068Z,17.93
2022-09-15T07:03:25.929Z,17.90
2022-09-15T07:04:25.866Z,17.92
2022-09-15T07:05:26.204Z,17.95
2022-09-15T07:06:25.842Z,17.97
2022-09-15T07:07:25.857Z,18.02
2022-09-15T07:08:25.832Z,18.05
2022-09-15T07:09:25.803Z,18.03
2022-09-15T07:10:25.805Z,18.08
2022-09-15T07:11:26.403Z,18.12
2022-09-15T07:12:25.769Z,18.14
2022-09-15T07:13:25.742Z,18.18
2022-09-15T07:14:25.731Z,18.20
2022-09-15T07:15:26.011Z,18.23
2022-09-15T07:16:25.758Z,18.20
2022-09-15T07:17:25.693Z,18.23
2022-09-15T07:18:25.680Z,18.26
2022-09-15T07:19:25.675Z,18.29
2022-09-15T07:20:25.661Z,18.33
2022-09-15T07:21:26.056Z,18.37
2022-09-15T07:22:25.620Z,18.39
2022-09-15T07:23:25.612Z,18.33
2022-09-15T07:24:25.601Z,18.33
2022-09-15T07:25:26.008Z,18.33
2022-09-15T07:26:25.573Z,18.30
2022-09-15T07:27:25.560Z,18.25
2022-09-15T07:28:25.551Z,18.20
2022-09-15T07:29:25.538Z,18.10
2022-09-15T07:30:25.521Z,17.97
2022-09-15T07:31:25.919Z,17.96
2022-09-15T07:32:25.499Z,17.93
2022-09-15T07:33:25.480Z,17.95
2022-09-15T07:34:25.468Z,17.93
2022-09-15T07:35:25.829Z,17.92
2022-09-15T07:36:25.447Z,17.89
2022-09-15T07:37:25.468Z,17.90
2022-09-15T07:38:25.419Z,17.92
2022-09-15T07:39:25.411Z,17.92
2022-09-15T07:40:25.567Z,17.95
2022-09-15T07:41:25.806Z,17.96
2022-09-15T07:42:25.365Z,17.99
2022-09-15T07:43:25.348Z,18.00
2022-09-15T07:44:25.338Z,18.05
2022-09-15T07:45:25.693Z,18.10
2022-09-15T07:46:25.320Z,18.15
2022-09-15T07:47:25.306Z,18.18
2022-09-15T07:48:26.569Z,18.25
2022-09-15T07:49:25.277Z,18.32
2022-09-15T07:50:25.676Z,18.41
2022-09-15T07:51:25.267Z,18.51
2022-09-15T07:52:25.237Z,18.63
2022-09-15T07:53:25.216Z,18.72
2022-09-15T07:54:25.209Z,18.88
2022-09-15T07:55:25.527Z,18.94
2022-09-15T07:56:25.188Z,19.00
2022-09-15T07:57:25.175Z,19.08
2022-09-15T07:58:25.157Z,19.13
2022-09-15T07:59:25.147Z,19.25
2022-09-15T08:00:25.609Z,19.29
2022-09-15T08:01:25.151Z,19.32
2022-09-15T08:02:25.130Z,19.31
2022-09-15T08:03:25.105Z,19.28
2022-09-15T08:04:25.087Z,19.28
2022-09-15T08:05:25.406Z,19.28
2022-09-15T08:06:25.055Z,19.28
2022-09-15T08:07:25.047Z,19.26
2022-09-15T08:08:25.026Z,19.26
2022-09-15T08:09:25.028Z,19.26
2022-09-15T08:10:25.425Z,19.23
2022-09-15T08:11:24.994Z,19.21
2022-09-15T08:12:24.974Z,19.16
2022-09-15T08:13:24.984Z,19.08
2022-09-15T08:14:24.954Z,19.10
2022-09-15T08:15:25.374Z,19.13
2022-09-15T08:16:25.024Z,19.14
2022-09-15T08:17:24.914Z,19.14
2022-09-15T08:18:24.908Z,19.13
2022-09-15T08:19:24.884Z,19.08
2022-09-15T08:20:25.197Z,19.07
2022-09-15T08:21:25.155Z,19.13
2022-09-15T08:22:24.853Z,19.13
2022-09-15T08:23:24.834Z,19.08
2022-09-15T08:24:24.827Z,19.07
2022-09-15T08:25:24.811Z,19.07
2022-09-15T08:26:25.237Z,19.07
2022-09-15T08:27:24.783Z,19.00
2022-09-15T08:28:24.786Z,19.06
2022-09-15T08:29:24.763Z,19.04
2022-09-15T08:30:24.798Z,19.10
2022-09-15T08:31:25.227Z,19.14
2022-09-15T08:32:24.724Z,19.19
2022-09-15T08:33:24.753Z,19.21
2022-09-15T08:34:24.701Z,19.21
2022-09-15T08:35:24.683Z,19.23
2022-09-15T08:36:25.086Z,19.25
2022-09-15T08:37:24.704Z,19.26
2022-09-15T08:38:24.652Z,19.32
2022-09-15T08:39:24.635Z,19.33
2022-09-15T08:40:24.762Z,19.33
2022-09-15T08:41:24.904Z,19.31
2022-09-15T08:42:24.600Z,19.31
2022-09-15T08:43:24.584Z,19.26
2022-09-15T08:44:24.586Z,19.22
2022-09-15T08:45:24.555Z,19.21
2022-09-15T08:46:24.996Z,19.21
2022-09-15T08:47:24.540Z,19.22
2022-09-15T08:48:24.520Z,19.23
2022-09-15T08:49:47.533Z,19.25
2022-09-15T08:50:25.492Z,19.23
2022-09-15T08:51:24.913Z,19.28
2022-09-15T08:52:24.481Z,19.29
2022-09-15T08:53:24.450Z,19.32
2022-09-15T08:54:24.451Z,19.39
2022-09-15T08:55:24.451Z,19.48
2022-09-15T08:56:24.740Z,19.61
2022-09-15T08:57:24.403Z,19.65
2022-09-15T08:58:24.394Z,19.71
2022-09-15T08:59:24.379Z,19.77
2022-09-15T09:00:24.365Z,19.84
2022-09-15T09:01:24.798Z,19.95
2022-09-15T09:02:24.392Z,20.01
2022-09-15T09:03:24.320Z,20.11
2022-09-15T09:04:24.309Z,20.21
2022-09-15T09:05:24.331Z,20.31
2022-09-15T09:06:24.714Z,20.32
2022-09-15T09:07:24.269Z,20.42
2022-09-15T09:08:24.260Z,20.57
2022-09-15T09:09:24.249Z,20.70
2022-09-15T09:10:24.229Z,20.67
2022-09-15T09:11:24.535Z,20.62
2022-09-15T09:12:24.212Z,20.55
2022-09-15T09:13:24.261Z,20.51
2022-09-15T09:14:24.190Z,20.50
2022-09-15T09:15:24.245Z,20.33
2022-09-15T09:16:24.542Z,20.28
2022-09-15T09:17:24.199Z,20.32
2022-09-15T09:18:24.132Z,20.28
2022-09-15T09:19:24.118Z,20.20
2022-09-15T09:20:24.099Z,20.21
2022-09-15T09:21:24.528Z,20.13
2022-09-15T09:22:24.081Z,20.17
2022-09-15T09:23:24.060Z,20.20
2022-09-15T09:24:24.058Z,20.11
2022-09-15T09:25:27.235Z,20.11
2022-09-15T09:26:24.442Z,20.13
2022-09-15T09:27:24.009Z,20.06
2022-09-15T09:28:23.999Z,20.13
2022-09-15T09:29:23.991Z,20.14
2022-09-15T09:30:23.988Z,20.18
2022-09-15T09:31:23.996Z,20.21
2022-09-15T09:32:24.354Z,20.21
2022-09-15T09:33:23.928Z,20.18
2022-09-15T09:34:23.925Z,20.23
2022-09-15T09:35:23.897Z,20.18
2022-09-15T09:36:23.958Z,20.17
2022-09-15T09:37:24.236Z,20.17
2022-09-15T09:38:23.895Z,20.16
2022-09-15T09:39:23.848Z,20.14
2022-09-15T09:40:23.882Z,20.14
2022-09-15T09:41:23.826Z,20.24
2022-09-15T09:42:24.292Z,20.18
2022-09-15T09:43:23.797Z,20.29
2022-09-15T09:44:23.791Z,20.41
2022-09-15T09:45:23.767Z,20.55
2022-09-15T09:46:23.864Z,20.57
2022-09-15T09:47:24.175Z,20.69
2022-09-15T09:48:23.735Z,20.72
2022-09-15T09:49:23.718Z,20.85
2022-09-15T09:50:23.726Z,20.94
2022-09-15T09:51:23.711Z,20.98
2022-09-15T09:52:24.078Z,21.13
2022-09-15T09:53:23.681Z,21.19
2022-09-15T09:54:23.657Z,21.28
2022-09-15T09:55:23.647Z,21.42
2022-09-15T09:56:23.636Z,21.58
2022-09-15T09:57:24.049Z,21.65
2022-09-15T09:58:23.606Z,21.71
2022-09-15T09:59:23.590Z,21.64
2022-09-15T10:00:23.589Z,21.56
2022-09-15T10:01:23.630Z,21.65
2022-09-15T10:02:23.978Z,21.54
2022-09-15T10:03:23.577Z,21.53
2022-09-15T10:04:23.595Z,21.59
2022-09-15T10:05:23.516Z,21.52
2022-09-15T10:06:23.517Z,21.53
2022-09-15T10:07:23.907Z,21.50
2022-09-15T10:08:23.477Z,21.44
2022-09-15T10:09:23.467Z,21.34
2022-09-15T10:10:23.459Z,21.35
2022-09-15T10:11:23.447Z,21.32
2022-09-15T10:12:23.847Z,21.19
2022-09-15T10:13:23.426Z,21.16
2022-09-15T10:14:23.405Z,21.16
2022-09-15T10:15:23.386Z,21.13
2022-09-15T10:16:23.481Z,21.21
2022-09-15T10:17:23.774Z,21.25
2022-09-15T10:18:23.355Z,21.28
2022-09-15T10:19:23.337Z,21.32
2022-09-15T10:20:23.328Z,21.37
2022-09-15T10:21:23.313Z,21.44
2022-09-15T10:22:23.637Z,21.35
2022-09-15T10:23:23.296Z,21.42
2022-09-15T10:24:23.282Z,21.43
2022-09-15T10:25:23.263Z,21.40
2022-09-15T10:26:23.246Z,21.54
2022-09-15T10:27:23.657Z,21.67
2022-09-15T10:28:23.227Z,21.67
2022-09-15T10:29:23.205Z,21.69
2022-09-15T10:30:23.205Z,21.67
2022-09-15T10:31:23.227Z,21.68
2022-09-15T10:32:25.175Z,21.74
2022-09-15T10:33:23.154Z,21.75
2022-09-15T10:34:23.154Z,21.65
2022-09-15T10:35:23.126Z,21.62
2022-09-15T10:36:23.127Z,21.58
2022-09-15T10:37:23.525Z,21.56
2022-09-15T10:38:23.138Z,21.52
2022-09-15T10:39:23.085Z,21.50
2022-09-15T10:40:23.124Z,21.44
2022-09-15T10:41:23.070Z,21.47
2022-09-15T10:42:23.378Z,21.53
2022-09-15T10:43:23.035Z,21.53
2022-09-15T10:44:23.026Z,21.65
2022-09-15T10:45:23.035Z,21.79
2022-09-15T10:46:22.996Z,21.82
2022-09-15T10:47:23.384Z,21.83
2022-09-15T10:48:22.976Z,21.77
2022-09-15T10:49:22.955Z,21.72
2022-09-15T10:50:22.954Z,21.69
2022-09-15T10:51:22.933Z,21.68
2022-09-15T10:52:23.283Z,21.65
2022-09-15T10:53:22.906Z,21.56
2022-09-15T10:54:22.893Z,21.49
2022-09-15T10:55:37.100Z,21.28
2022-09-15T10:56:23.880Z,20.97
2022-09-15T10:57:23.329Z,20.67
2022-09-15T10:58:22.846Z,20.18
2022-09-15T10:59:22.825Z,19.66
2022-09-15T11:00:22.826Z,19.10
2022-09-15T11:01:22.878Z,18.60
2022-09-15T11:02:23.188Z,18.35
2022-09-15T11:03:23.732Z,18.12
2022-09-15T11:04:22.771Z,17.95
2022-09-15T11:05:23.021Z,17.77
2022-09-15T11:06:22.744Z,17.71
2022-09-15T11:07:23.134Z,17.63
2022-09-15T11:08:22.715Z,17.51
2022-09-15T11:09:22.705Z,17.38
2022-09-15T11:10:22.707Z,17.15
2022-09-15T11:11:22.708Z,17.04
2022-09-15T11:12:28.445Z,16.94
2022-09-15T11:13:23.955Z,16.89
2022-09-15T11:14:22.642Z,16.91
2022-09-15T11:15:22.632Z,16.93
2022-09-15T11:16:22.653Z,16.85
2022-09-15T11:17:22.602Z,16.78
2022-09-15T11:18:22.955Z,16.68
2022-09-15T11:19:22.602Z,16.61
2022-09-15T11:20:22.564Z,16.49
2022-09-15T11:21:22.571Z,16.48
2022-09-15T11:22:22.551Z,16.45
2022-09-15T11:23:22.764Z,16.50
2022-09-15T11:24:22.520Z,16.53
2022-09-15T11:25:22.515Z,16.53
2022-09-15T11:26:22.495Z,16.50
2022-09-15T11:27:22.541Z,16.53
2022-09-15T11:28:22.811Z,16.53
2022-09-15T11:29:22.451Z,16.27
2022-09-15T11:30:22.429Z,16.20
2022-09-15T11:31:22.545Z,16.11
2022-09-15T11:32:22.410Z,16.02
2022-09-15T11:33:22.959Z,16.02
2022-09-15T11:34:22.450Z,16.08
2022-09-15T11:35:22.459Z,16.07
2022-09-15T11:36:22.516Z,16.05
2022-09-15T11:37:22.469Z,15.92
2022-09-15T11:38:22.946Z,15.86
2022-09-15T11:39:22.934Z,15.89
2022-09-15T11:40:22.498Z,15.93
2022-09-15T11:41:22.458Z,16.00
2022-09-15T11:42:22.527Z,16.00
2022-09-15T11:43:23.058Z,15.96
2022-09-15T11:44:22.399Z,15.94
2022-09-15T11:45:22.438Z,15.86
2022-09-15T11:46:22.304Z,15.76
2022-09-15T11:47:22.208Z,15.71
2022-09-15T11:48:22.577Z,15.59
2022-09-15T11:49:22.179Z,15.56
2022-09-15T11:50:23.040Z,15.50
2022-09-15T11:51:22.178Z,15.43
2022-09-15T11:52:22.156Z,15.29
2022-09-15T11:53:22.559Z,15.21
2022-09-15T11:54:22.126Z,15.21
2022-09-15T11:55:22.108Z,15.20
2022-09-15T11:56:22.097Z,15.16
2022-09-15T11:57:22.103Z,15.19
2022-09-15T11:58:22.616Z,15.21
2022-09-15T11:59:22.056Z,15.25
2022-09-15T12:00:22.047Z,15.23
2022-09-15T12:01:22.026Z,15.20
2022-09-15T12:02:22.267Z,15.20
2022-09-15T12:03:22.434Z,15.17
2022-09-15T12:04:21.986Z,15.16
2022-09-15T12:05:21.976Z,15.17
2022-09-15T12:06:21.965Z,15.23
2022-09-15T12:07:21.969Z,15.25
2022-09-15T12:08:22.358Z,15.25
2022-09-15T12:09:21.916Z,15.28
2022-09-15T12:10:21.917Z,15.21
2022-09-15T12:11:21.895Z,15.10
2022-09-15T12:12:21.885Z,15.13
2022-09-15T12:13:22.292Z,15.13
2022-09-15T12:14:21.862Z,15.23
2022-09-15T12:15:22.071Z,15.31
2022-09-15T12:16:21.935Z,15.39
2022-09-15T12:17:21.824Z,15.47
2022-09-15T12:18:38.146Z,15.53
2022-09-15T12:19:22.803Z,15.56
2022-09-15T12:20:21.776Z,15.54
2022-09-15T12:21:21.778Z,15.56
2022-09-15T12:22:21.817Z,15.41
2022-09-15T12:23:22.177Z,15.28
2022-09-15T12:24:21.764Z,15.27
2022-09-15T12:25:21.731Z,15.02
2022-09-15T12:26:21.761Z,14.99
2022-09-15T12:27:21.785Z,15.07
2022-09-15T12:28:22.075Z,15.21
2022-09-15T12:29:21.671Z,15.36
2022-09-15T12:30:21.652Z,15.49
2022-09-15T12:31:21.670Z,15.43
2022-09-15T12:32:21.632Z,15.47
2022-09-15T12:33:21.621Z,15.44
2022-09-15T12:34:22.051Z,15.46
2022-09-15T12:35:21.610Z,15.39
2022-09-15T12:36:21.581Z,15.35
2022-09-15T12:37:21.603Z,15.28
2022-09-15T12:38:21.549Z,15.16
2022-09-15T12:39:21.980Z,15.13
2022-09-15T12:40:21.739Z,15.23
2022-09-15T12:41:21.532Z,15.14
2022-09-15T12:42:21.507Z,15.13
2022-09-15T12:43:21.500Z,15.19
2022-09-15T12:44:21.932Z,15.23
2022-09-15T12:45:21.460Z,15.20
2022-09-15T12:46:21.499Z,15.20
2022-09-15T12:47:21.459Z,15.19
2022-09-15T12:48:21.417Z,15.14
2022-09-15T12:49:21.829Z,15.11
2022-09-15T12:50:21.452Z,15.13
2022-09-15T12:51:21.379Z,15.23
2022-09-15T12:52:21.368Z,15.34